Time;durP1;ratioP1;P1;durP2;ratioP2;P2;SDS_P1;SDS_P2;PMS_P1;PMS_P2;Temp;Humidity;BMP_temperature;BMP_pressure;BME280_temperature;BME280_humidity;BME280_pressure;Samples;Min_cycle;Max_cycle;Signal;HPM_P1;HPM_P2
2023/06/26 00:00:47;;;;;;;;;11.33;9.00;;;;;24.11;65.75;100972.84;5038399;28;45467;-81
2023/06/26 00:03:14;;;;;;;;;8.33;7.00;;;;;23.98;66.74;100968.69;5056125;28;45465;-81
2023/06/26 00:05:41;;;;;;;;;9.00;8.67;;;;;23.98;66.68;100976.69;5038163;28;45479;-81
2023/06/26 00:08:07;;;;;;;;;8.33;8.33;;;;;23.88;66.53;100965.28;5057067;28;45406;-81
2023/06/26 00:10:32;;;;;;;;;9.00;8.00;;;;;23.92;66.79;100974.13;5057202;28;45526;-80
2023/06/26 00:12:58;;;;;;;;;11.33;9.00;;;;;23.81;67.03;100960.97;5038662;28;47949;-81
2023/06/26 00:15:24;;;;;;;;;8.00;8.00;;;;;23.87;66.51;100965.31;5056823;28;45392;-80
2023/06/26 00:17:50;;;;;;;;;11.33;8.33;;;;;23.94;66.75;100970.50;5057056;28;45504;-80
2023/06/26 00:20:16;;;;;;;;;10.00;8.33;;;;;23.86;66.88;100955.56;5057322;28;45328;-80
2023/06/26 00:22:42;;;;;;;;;12.33;8.33;;;;;23.86;66.88;100958.25;5056798;28;45502;-78
2023/06/26 00:25:07;;;;;;;;;12.00;10.00;;;;;23.85;67.13;100962.66;5056399;28;45213;-80
2023/06/26 00:27:33;;;;;;;;;8.00;8.00;;;;;23.82;67.12;100962.75;5056762;28;45655;-77
2023/06/26 00:29:59;;;;;;;;;10.67;10.33;;;;;23.92;66.55;100967.00;5057184;28;45462;-80
2023/06/26 00:32:24;;;;;;;;;9.00;9.00;;;;;23.94;66.13;100954.50;5038589;28;45355;-80
2023/06/26 00:34:50;;;;;;;;;6.00;4.67;;;;;23.98;66.02;100936.66;5056817;28;45217;-80
2023/06/26 00:37:15;;;;;;;;;10.00;8.33;;;;;23.98;66.49;100948.19;5038553;28;45489;-80
2023/06/26 00:39:41;;;;;;;;;8.33;8.00;;;;;23.94;66.55;100949.16;5058241;28;45446;-80
2023/06/26 00:42:07;;;;;;;;;8.00;7.33;;;;;23.92;66.74;100953.66;5059931;28;45929;-79
2023/06/26 00:44:32;;;;;;;;;9.00;8.00;;;;;23.69;67.35;100908.69;5059985;28;45528;-75
2023/06/26 00:46:58;;;;;;;;;8.67;8.33;;;;;23.84;67.16;100934.25;5042509;28;45594;-80
2023/06/26 00:49:24;;;;;;;;;8.67;7.67;;;;;23.90;66.78;100933.25;5042231;28;45494;-79
2023/06/26 00:51:50;;;;;;;;;9.33;7.67;;;;;23.94;66.90;100932.28;5059977;28;46175;-80
2023/06/26 00:54:19;;;;;;;;;9.33;8.67;;;;;23.76;68.54;100920.13;5059556;28;45509;-80
2023/06/26 00:56:47;;;;;;;;;9.33;8.67;;;;;23.73;68.03;100917.50;5041823;28;45288;-81
2023/06/26 00:59:13;;;;;;;;;9.33;8.67;;;;;23.76;68.38;100922.81;5060158;28;45257;-80
2023/06/26 01:01:39;;;;;;;;;9.33;8.67;;;;;23.75;68.06;100927.25;5059752;28;45382;-77
2023/06/26 01:04:05;;;;;;;;;9.00;8.00;;;;;23.81;68.23;100926.28;5041678;28;45709;-76
2023/06/26 01:06:35;;;;;;;;;8.00;7.67;;;;;23.76;67.30;100906.81;5060300;28;45529;-75
2023/06/26 01:09:02;;;;;;;;;8.00;7.67;;;;;23.86;68.35;100923.56;5060028;28;45352;-75
2023/06/26 01:11:28;;;;;;;;;10.00;8.00;;;;;23.75;68.57;100907.69;5041226;28;46282;-75
2023/06/26 01:13:56;;;;;;;;;9.33;8.67;;;;;23.86;68.08;100919.09;5059790;28;45774;-77
2023/06/26 01:16:24;;;;;;;;;7.67;5.67;;;;;23.85;68.00;100925.31;5059723;28;45315;-75
2023/06/26 01:18:50;;;;;;;;;9.00;8.00;;;;;23.76;68.53;100905.00;5059767;28;45483;-76
2023/06/26 01:21:17;;;;;;;;;10.33;9.67;;;;;23.82;68.74;100912.94;5059340;28;45281;-76
2023/06/26 01:23:49;;;;;;;;;9.33;8.00;;;;;23.91;68.74;100914.53;5041477;28;45491;-75
2023/06/26 01:26:22;;;;;;;;;10.00;9.00;;;;;23.81;68.16;100907.63;5059835;28;45298;-76
2023/06/26 01:28:51;;;;;;;;;7.67;7.67;;;;;23.88;68.31;100911.06;5059654;28;45158;-75
2023/06/26 01:31:18;;;;;;;;;10.67;9.33;;;;;23.81;68.32;100902.28;5041172;28;45440;-75
2023/06/26 01:33:46;;;;;;;;;8.00;8.00;;;;;23.85;67.95;100903.09;5059302;28;45324;-75
2023/06/26 01:36:12;;;;;;;;;8.00;7.00;;;;;23.77;68.32;100893.44;5041296;28;45525;-76
2023/06/26 01:38:37;;;;;;;;;10.33;9.00;;;;;23.78;68.16;100908.56;5059349;28;45326;-76
2023/06/26 01:41:04;;;;;;;;;9.00;8.33;;;;;23.77;68.15;100901.44;5059031;28;47402;-75
2023/06/26 01:43:41;;;;;;;;;9.33;9.00;;;;;23.76;68.53;100906.81;5041023;28;45445;-76
2023/06/26 01:46:25;;;;;;;;;9.00;9.00;;;;;23.77;68.47;100904.13;5059263;28;45390;-76
2023/06/26 01:49:03;;;;;;;;;7.33;6.00;;;;;23.80;68.44;100904.06;5059242;28;45640;-75
2023/06/26 01:51:38;;;;;;;;;9.00;8.00;;;;;23.68;68.49;100874.06;5058042;28;45261;-75
2023/06/26 01:54:10;;;;;;;;;9.33;9.33;;;;;23.77;68.21;100889.88;5041199;28;45480;-75
2023/06/26 01:56:38;;;;;;;;;7.00;7.00;;;;;23.84;68.40;100910.22;5059413;28;45383;-75
2023/06/26 01:59:07;;;;;;;;;7.00;7.00;;;;;23.82;67.92;100915.59;5059313;28;45496;-76
2023/06/26 02:01:33;;;;;;;;;8.00;8.00;;;;;23.79;67.94;100909.44;5058863;28;46071;-75
2023/06/26 02:03:59;;;;;;;;;8.00;7.33;;;;;23.72;67.31;100902.44;5058775;28;45354;-75
2023/06/26 02:06:25;;;;;;;;;9.67;9.67;;;;;23.56;68.13;100881.38;5058928;28;45497;-75
2023/06/26 02:08:50;;;;;;;;;8.33;7.33;;;;;23.76;68.04;100910.34;5040895;28;45469;-76
2023/06/26 02:11:16;;;;;;;;;9.33;9.33;;;;;23.79;68.33;100915.63;5058719;28;45535;-75
2023/06/26 02:13:41;;;;;;;;;10.67;8.33;;;;;23.85;68.23;100919.09;5058807;28;45408;-76
2023/06/26 02:16:07;;;;;;;;;8.00;8.00;;;;;23.81;67.49;100896.94;5058987;28;45527;-76
2023/06/26 02:18:32;;;;;;;;;9.00;8.00;;;;;23.86;67.32;100910.22;5059274;28;45503;-75
2023/06/26 02:20:58;;;;;;;;;10.00;9.67;;;;;23.84;67.57;100912.91;5058502;28;45398;-75
2023/06/26 02:23:23;;;;;;;;;12.67;9.67;;;;;23.72;68.53;100907.78;5040491;28;45482;-75
2023/06/26 02:25:49;;;;;;;;;8.00;8.00;;;;;23.63;68.42;100904.38;5040756;28;45521;-75
2023/06/26 02:28:14;;;;;;;;;11.00;10.33;;;;;23.59;68.71;100899.97;5040667;28;45531;-76
2023/06/26 02:30:40;;;;;;;;;8.67;8.00;;;;;23.60;68.49;100907.06;5058315;28;45553;-76
2023/06/26 02:33:05;;;;;;;;;8.00;7.67;;;;;23.46;69.33;100890.47;5040673;28;45533;-75
2023/06/26 02:35:32;;;;;;;;;10.00;9.00;;;;;23.29;69.18;100864.06;5040275;28;45527;-75
2023/06/26 02:37:58;;;;;;;;;7.00;6.33;;;;;23.58;69.06;100902.69;5058692;28;45335;-76
2023/06/26 02:40:23;;;;;;;;;10.33;8.33;;;;;23.65;69.27;100909.66;5058178;28;46254;-76
2023/06/26 02:42:49;;;;;;;;;8.33;8.00;;;;;23.62;68.71;100894.59;5040223;28;45410;-75
2023/06/26 02:45:14;;;;;;;;;7.67;7.67;;;;;23.67;68.97;100898.97;5058196;28;45327;-75
2023/06/26 02:47:40;;;;;;;;;9.00;8.00;;;;;23.63;68.64;100885.69;5058193;28;45628;-76
2023/06/26 02:50:07;;;;;;;;;9.00;8.33;;;;;23.76;68.75;100913.00;5040246;28;46535;-75
2023/06/26 02:52:32;;;;;;;;;12.00;10.67;;;;;23.77;69.31;100909.44;5058057;28;45266;-75
2023/06/26 02:54:58;;;;;;;;;10.00;7.67;;;;;23.67;69.90;100888.28;5057981;28;45411;-75
2023/06/26 02:57:23;;;;;;;;;9.67;9.67;;;;;23.74;69.18;100903.28;5058233;28;45426;-75
2023/06/26 02:59:49;;;;;;;;;10.33;8.00;;;;;23.77;69.41;100917.44;5057636;28;45492;-75
2023/06/26 03:02:14;;;;;;;;;10.33;9.00;;;;;23.75;69.60;100907.69;5057692;28;45262;-77
2023/06/26 03:04:40;;;;;;;;;10.00;9.00;;;;;23.77;69.89;100911.22;5058069;28;45474;-76
2023/06/26 03:07:05;;;;;;;;;9.33;8.33;;;;;23.66;69.94;100911.44;5058102;28;45307;-75
2023/06/26 03:09:31;;;;;;;;;10.00;8.67;;;;;23.60;70.09;100899.09;5039730;28;46580;-75
2023/06/26 03:11:56;;;;;;;;;10.00;9.33;;;;;23.61;69.34;100900.81;5057618;28;45469;-76
2023/06/26 03:14:22;;;;;;;;;9.67;8.33;;;;;23.57;69.45;100904.44;5057673;28;45453;-76
2023/06/26 03:16:47;;;;;;;;;10.00;9.33;;;;;23.56;69.83;100908.03;5040053;28;45616;-75
2023/06/26 03:19:13;;;;;;;;;8.33;8.33;;;;;23.57;69.70;100917.78;5057821;28;46363;-76
2023/06/26 03:21:39;;;;;;;;;8.67;7.67;;;;;23.53;69.89;100909.88;5057844;28;45431;-76
2023/06/26 03:24:05;;;;;;;;;10.33;9.67;;;;;23.59;69.46;100905.31;5039553;28;45401;-75
2023/06/26 03:26:30;;;;;;;;;8.33;7.67;;;;;23.62;69.86;100904.41;5058002;28;45455;-75
2023/06/26 03:28:56;;;;;;;;;8.00;8.00;;;;;23.59;69.38;100897.31;5057200;28;46119;-76
2023/06/26 03:31:21;;;;;;;;;10.00;9.00;;;;;23.60;69.51;100901.75;5057472;28;45406;-76
2023/06/26 03:33:47;;;;;;;;;9.67;9.00;;;;;23.65;69.72;100909.66;5058019;28;45877;-75
2023/06/26 03:36:12;;;;;;;;;10.67;10.33;;;;;23.55;69.99;100895.59;5039735;28;45479;-75
2023/06/26 03:38:38;;;;;;;;;9.00;8.00;;;;;23.48;69.98;100901.09;5057154;28;45288;-75
2023/06/26 03:41:03;;;;;;;;;9.00;9.00;;;;;23.51;70.25;100920.56;5057158;28;45474;-75
2023/06/26 03:43:29;;;;;;;;;8.67;8.67;;;;;23.50;69.33;100910.81;5057018;28;45391;-75
2023/06/26 03:45:54;;;;;;;;;9.33;8.33;;;;;23.52;70.07;100917.00;5057255;28;45604;-76
2023/06/26 03:48:20;;;;;;;;;9.00;8.00;;;;;23.55;69.62;100908.94;5057143;28;46234;-76
2023/06/26 03:50:46;;;;;;;;;8.33;8.33;;;;;23.52;69.76;100889.47;5039064;28;45392;-76
2023/06/26 03:53:11;;;;;;;;;8.00;8.00;;;;;23.60;69.47;100907.06;5039606;28;45231;-76
2023/06/26 03:55:38;;;;;;;;;8.00;7.33;;;;;23.61;69.54;100913.28;5057520;28;45414;-76
2023/06/26 03:58:04;;;;;;;;;8.00;8.00;;;;;23.63;69.34;100915.03;5057208;28;46114;-75
2023/06/26 04:00:30;;;;;;;;;8.00;6.33;;;;;23.49;69.73;100895.72;5056650;28;45465;-76
2023/06/26 04:02:55;;;;;;;;;12.00;10.67;;;;;23.57;69.78;100920.47;5057315;28;45522;-75
2023/06/26 04:05:21;;;;;;;;;11.33;9.33;;;;;23.42;70.16;100907.41;5039335;28;45272;-75
2023/06/26 04:07:50;;;;;;;;;7.00;5.33;;;;;23.32;71.02;100919.16;5057173;28;45412;-75
2023/06/26 04:10:15;;;;;;;;;9.33;9.00;;;;;23.28;70.59;100901.41;5057119;28;45528;-77
2023/06/26 04:12:41;;;;;;;;;7.67;7.00;;;;;23.37;70.97;100918.13;5039420;28;45517;-80
2023/06/26 04:15:07;;;;;;;;;10.67;9.00;;;;;23.39;70.16;100913.66;5059634;28;45216;-80
2023/06/26 04:17:32;;;;;;;;;7.67;7.00;;;;;23.45;70.34;100919.81;5042367;28;46673;-78
2023/06/26 04:19:58;;;;;;;;;9.00;8.33;;;;;23.50;70.04;100910.81;5042420;28;45625;-78
2023/06/26 04:22:24;;;;;;;;;9.33;8.33;;;;;23.45;70.28;100914.47;5042567;28;45296;-80
2023/06/26 04:24:50;;;;;;;;;8.33;7.00;;;;;23.29;70.55;100892.53;5060939;28;45212;-80
2023/06/26 04:27:16;;;;;;;;;8.00;7.00;;;;;23.46;70.41;100906.44;5041860;28;45401;-76
2023/06/26 04:29:42;;;;;;;;;9.00;8.00;;;;;23.42;70.23;100905.63;5042491;28;45341;-75
2023/06/26 04:32:07;;;;;;;;;10.67;9.00;;;;;23.40;70.33;100895.91;5060512;28;45364;-75
2023/06/26 04:34:33;;;;;;;;;8.00;8.00;;;;;23.44;70.27;100913.59;5060532;28;45542;-75
2023/06/26 04:36:59;;;;;;;;;10.33;9.00;;;;;23.31;69.84;100904.03;5042309;28;45540;-75
2023/06/26 04:39:25;;;;;;;;;7.00;7.00;;;;;23.32;70.30;100905.81;5060339;28;45473;-75
2023/06/26 04:41:50;;;;;;;;;7.67;7.67;;;;;23.20;70.12;100905.09;5060433;28;45521;-76
2023/06/26 04:44:16;;;;;;;;;7.67;5.00;;;;;23.27;70.74;100918.34;5060345;28;45486;-75
2023/06/26 04:46:41;;;;;;;;;8.00;6.67;;;;;23.15;70.18;100906.94;5043215;28;46564;-80
2023/06/26 04:49:08;;;;;;;;;9.00;6.00;;;;;23.02;70.58;100882.31;5041953;28;45463;-79
2023/06/26 04:51:33;;;;;;;;;8.00;6.00;;;;;23.23;70.46;100915.69;5060414;28;45464;-81
2023/06/26 04:53:59;;;;;;;;;7.00;6.00;;;;;23.20;70.96;100909.56;5042358;28;45265;-78
2023/06/26 04:56:24;;;;;;;;;6.33;6.00;;;;;23.20;70.56;100917.56;5041739;28;47376;-79
2023/06/26 04:58:50;;;;;;;;;7.33;6.00;;;;;23.19;70.52;100915.78;5059806;28;45321;-79
2023/06/26 05:01:15;;;;;;;;;9.00;8.00;;;;;23.28;70.46;100922.75;5042254;28;45355;-81
2023/06/26 05:03:41;;;;;;;;;7.67;7.00;;;;;23.31;70.53;100918.25;5060199;28;45477;-79
2023/06/26 05:06:06;;;;;;;;;7.00;7.00;;;;;23.35;69.90;100927.06;5059767;28;46061;-80
2023/06/26 05:08:32;;;;;;;;;6.00;6.00;;;;;23.31;70.49;100923.56;5041578;28;45420;-80
2023/06/26 05:10:58;;;;;;;;;7.00;6.67;;;;;23.35;70.06;100927.94;5059663;28;45251;-80
2023/06/26 05:13:26;;;;;;;;;5.00;5.00;;;;;23.39;69.63;100926.13;5060147;28;45315;-81
2023/06/26 05:15:52;;;;;;;;;5.67;5.67;;;;;23.38;69.76;100917.25;5041323;28;47133;-79
2023/06/26 05:18:18;;;;;;;;;9.00;6.00;;;;;23.35;69.44;100914.63;5059804;28;45283;-75
2023/06/26 05:20:44;;;;;;;;;7.33;7.00;;;;;23.32;69.89;100904.03;5041956;28;45403;-78
2023/06/26 05:23:11;;;;;;;;;6.33;6.00;;;;;23.29;69.77;100917.38;5059668;28;45521;-80
2023/06/26 05:25:38;;;;;;;;;3.33;3.00;;;;;23.27;69.50;100921.00;5058082;28;45453;-80
2023/06/26 05:28:05;;;;;;;;;7.00;6.00;;;;;23.29;69.75;100908.53;5059430;28;45439;-80
2023/06/26 05:30:34;;;;;;;;;7.33;6.33;;;;;23.30;69.74;100931.59;5059450;28;45473;-78
2023/06/26 05:33:01;;;;;;;;;6.67;6.00;;;;;23.32;70.20;100929.81;5059782;28;45375;-78
2023/06/26 05:35:32;;;;;;;;;5.33;5.33;;;;;23.28;70.69;100920.06;5058713;28;45450;-81
2023/06/26 05:37:58;;;;;;;;;9.33;8.00;;;;;23.32;70.22;100932.47;5040951;28;45438;-79
2023/06/26 05:40:24;;;;;;;;;9.00;7.00;;;;;23.36;70.69;100931.53;5059338;28;45513;-79
2023/06/26 05:42:50;;;;;;;;;7.67;7.67;;;;;23.42;69.79;100926.09;5059547;28;45312;-76
2023/06/26 05:45:16;;;;;;;;;5.33;4.00;;;;;23.49;70.54;100932.19;5059309;28;45934;-76
2023/06/26 05:47:42;;;;;;;;;7.67;6.67;;;;;23.49;70.24;100930.38;5041352;28;45668;-77
2023/06/26 05:50:09;;;;;;;;;8.00;7.00;;;;;23.54;69.69;100930.31;5059309;28;45314;-76
2023/06/26 05:52:35;;;;;;;;;6.00;5.00;;;;;23.61;69.20;100930.16;5059331;28;45382;-77
2023/06/26 05:55:01;;;;;;;;;6.33;6.00;;;;;23.66;69.25;100929.22;5059026;28;45604;-77
2023/06/26 05:57:28;;;;;;;;;6.00;5.00;;;;;23.74;68.83;100935.28;5059114;28;45461;-79
2023/06/26 05:59:54;;;;;;;;;6.00;6.00;;;;;23.80;68.74;100935.22;5059095;28;45493;-79
2023/06/26 06:02:20;;;;;;;;;6.33;6.00;;;;;23.82;67.95;100936.06;5041717;28;45792;-78
2023/06/26 06:04:45;;;;;;;;;6.33;5.67;;;;;23.72;68.14;100934.44;5058979;28;45648;-79
2023/06/26 06:07:11;;;;;;;;;6.33;6.33;;;;;23.79;67.84;100931.66;5040656;28;45359;-79
2023/06/26 06:09:37;;;;;;;;;7.00;6.00;;;;;23.85;67.51;100944.00;5040946;28;45435;-79
2023/06/26 06:12:05;;;;;;;;;6.00;6.00;;;;;23.91;67.94;100946.53;5059268;28;45351;-81
2023/06/26 06:14:31;;;;;;;;;6.33;5.00;;;;;23.89;67.72;100940.34;5058774;28;45505;-80
2023/06/26 06:16:57;;;;;;;;;5.00;5.00;;;;;24.00;68.02;100949.03;5058178;28;45300;-79
2023/06/26 06:19:23;;;;;;;;;6.33;6.00;;;;;24.06;67.35;100944.50;5058659;28;45508;-80
2023/06/26 06:21:48;;;;;;;;;6.00;6.00;;;;;24.09;66.69;100947.97;5059142;28;45324;-80
2023/06/26 06:24:14;;;;;;;;;6.33;6.00;;;;;24.15;66.21;100949.66;5058640;28;45375;-79
2023/06/26 06:26:39;;;;;;;;;5.67;5.33;;;;;24.13;66.78;100954.16;5058342;28;45308;-79
2023/06/26 06:29:05;;;;;;;;;8.67;7.33;;;;;23.97;65.80;100943.78;5040255;28;45508;-80
2023/06/26 06:31:31;;;;;;;;;7.00;6.67;;;;;23.93;66.30;100943.84;5058778;28;45216;-79
2023/06/26 06:33:57;;;;;;;;;5.67;5.00;;;;;23.95;66.21;100953.56;5058245;28;46018;-80
2023/06/26 06:36:23;;;;;;;;;6.00;5.67;;;;;24.04;66.54;100957.88;5057679;28;45514;-79
2023/06/26 06:38:48;;;;;;;;;10.33;8.67;;;;;24.09;66.13;100947.09;5058449;28;45541;-80
2023/06/26 06:41:14;;;;;;;;;6.00;5.00;;;;;24.18;65.97;100952.28;5058697;28;45509;-78
2023/06/26 06:43:39;;;;;;;;;5.67;4.67;;;;;24.22;65.73;100948.63;5058160;28;45668;-79
2023/06/26 06:46:05;;;;;;;;;6.00;6.00;;;;;24.28;66.27;100951.19;5058231;28;45543;-78
2023/06/26 06:48:31;;;;;;;;;7.00;6.33;;;;;24.22;65.62;100946.84;5058360;28;45336;-80
2023/06/26 06:50:57;;;;;;;;;8.00;5.67;;;;;24.36;65.37;100959.03;5040229;28;45471;-78
2023/06/26 06:53:23;;;;;;;;;7.00;4.67;;;;;24.32;64.93;100958.22;5058229;28;46049;-75
2023/06/26 06:55:49;;;;;;;;;6.33;5.00;;;;;24.38;65.52;100963.41;5040408;28;45291;-78
2023/06/26 06:58:24;;;;;;;;;6.00;5.33;;;;;24.39;65.34;100953.63;5058356;28;45320;-80
2023/06/26 07:00:51;;;;;;;;;8.67;6.00;;;;;24.44;65.50;100949.06;5056938;28;45518;-80
2023/06/26 07:03:17;;;;;;;;;6.33;6.33;;;;;24.56;65.26;100969.34;5053988;28;45550;-79
2023/06/26 07:05:43;;;;;;;;;8.67;6.33;;;;;24.49;64.81;100959.63;5038673;28;45525;-76
2023/06/26 07:08:09;;;;;;;;;6.00;6.00;;;;;24.60;65.29;100973.69;5057161;28;45287;-80
2023/06/26 07:10:35;;;;;;;;;5.33;5.33;;;;;24.68;64.64;100971.72;5057413;28;45379;-79
2023/06/26 07:13:01;;;;;;;;;7.67;7.00;;;;;24.78;65.22;100972.41;5056839;28;46131;-79
2023/06/26 07:15:26;;;;;;;;;6.00;6.00;;;;;24.82;64.97;100966.09;5038728;28;45374;-80
2023/06/26 07:17:52;;;;;;;;;5.67;5.00;;;;;24.99;64.29;100963.03;5056762;28;45458;-81
2023/06/26 07:20:18;;;;;;;;;5.67;5.33;;;;;25.05;63.89;100976.25;5056251;28;45220;-80
2023/06/26 07:22:44;;;;;;;;;6.67;6.00;;;;;25.20;64.39;100973.19;5038372;28;46822;-79
2023/06/26 07:25:11;;;;;;;;;4.67;4.00;;;;;25.37;63.79;100971.97;5056764;28;45520;-78
2023/06/26 07:27:40;;;;;;;;;5.33;5.00;;;;;25.56;63.70;100980.41;5056841;28;46663;-78
2023/06/26 07:30:07;;;;;;;;;6.00;5.33;;;;;25.59;63.21;100970.50;5056644;28;45489;-80
2023/06/26 07:32:33;;;;;;;;;6.67;4.67;;;;;25.64;62.68;100964.16;5038193;28;46186;-77
2023/06/26 07:34:58;;;;;;;;;7.00;6.00;;;;;25.78;62.46;100976.28;5056384;28;45346;-79
2023/06/26 07:37:24;;;;;;;;;7.00;6.67;;;;;25.93;61.89;100982.16;5038363;28;45410;-80
2023/06/26 07:39:50;;;;;;;;;6.00;6.00;;;;;25.98;62.03;100980.22;5057160;28;45400;-81
2023/06/26 07:42:15;;;;;;;;;5.00;4.33;;;;;26.13;60.97;100977.13;5038079;28;47689;-80
2023/06/26 07:44:44;;;;;;;;;3.00;3.00;;;;;26.23;61.55;100972.41;5056187;28;45501;-80
2023/06/26 07:47:10;;;;;;;;;6.67;6.00;;;;;26.58;60.59;100991.94;5036364;28;45693;-77
2023/06/26 07:49:36;;;;;;;;;7.00;5.67;;;;;26.63;60.03;100999.88;5055476;28;45454;-74
2023/06/26 07:52:03;;;;;;;;;6.33;5.33;;;;;26.88;60.14;100984.81;5056038;28;45363;-77
2023/06/26 07:54:29;;;;;;;;;4.67;4.67;;;;;27.19;60.08;100987.38;5055705;28;45501;-76
2023/06/26 07:57:01;;;;;;;;;6.00;5.00;;;;;27.46;58.56;100987.47;5056358;28;45344;-77
2023/06/26 07:59:28;;;;;;;;;7.00;5.00;;;;;27.45;59.28;100988.38;5053545;28;45504;-76
2023/06/26 08:01:56;;;;;;;;;7.00;7.00;;;;;27.48;58.71;100974.00;5046756;28;45416;-75
2023/06/26 08:04:25;;;;;;;;;3.00;3.00;;;;;27.53;58.37;100980.06;5056733;28;45566;-83
2023/06/26 08:06:53;;;;;;;;;5.67;5.33;;;;;27.55;57.67;100981.75;5056570;28;45353;-79
2023/06/26 08:09:20;;;;;;;;;6.00;5.33;;;;;27.52;57.49;100981.03;5055042;28;45597;-75
2023/06/26 08:11:47;;;;;;;;;8.00;4.67;;;;;27.53;57.38;100989.00;5056252;28;46018;-81
2023/06/26 08:14:13;;;;;;;;;5.00;5.00;;;;;27.61;57.78;100990.56;5055796;28;45381;-76
2023/06/26 08:16:43;;;;;;;;;5.33;5.00;;;;;27.64;57.59;100987.78;5046456;28;45327;-79
2023/06/26 08:19:09;;;;;;;;;7.00;5.00;;;;;27.64;57.51;100985.97;5044337;28;45524;-79
2023/06/26 08:21:35;;;;;;;;;5.67;5.00;;;;;27.63;56.55;100994.94;5055242;28;46136;-78
2023/06/26 08:24:01;;;;;;;;;5.00;4.00;;;;;27.58;57.00;100981.69;5037526;28;45832;-85
2023/06/26 08:26:27;;;;;;;;;6.00;5.00;;;;;27.53;57.17;100997.03;5038521;28;45568;-77
2023/06/26 08:28:52;;;;;;;;;5.33;5.33;;;;;27.30;57.58;100978.19;5046164;28;45311;-77
2023/06/26 08:31:19;;;;;;;;;7.00;7.00;;;;;27.14;57.80;100969.72;5055786;28;46149;-78
2023/06/26 08:33:44;;;;;;;;;6.00;6.00;;;;;27.15;58.12;100988.41;5045907;28;45594;-79
2023/06/26 08:36:10;;;;;;;;;5.00;5.00;;;;;27.04;58.50;100987.00;5046801;28;45611;-75
2023/06/26 08:38:36;;;;;;;;;6.33;5.00;;;;;26.95;58.09;100991.72;5055760;28;45434;-72
2023/06/26 08:41:01;;;;;;;;;6.00;6.00;;;;;26.69;59.23;100992.53;5055680;28;45774;-74
2023/06/26 08:43:28;;;;;;;;;5.33;5.00;;;;;26.55;59.33;100997.38;5054984;28;45369;-82
2023/06/26 08:45:53;;;;;;;;;6.33;5.00;;;;;26.49;59.53;100992.22;5046166;28;46117;-82
2023/06/26 08:48:21;;;;;;;;;6.00;5.00;;;;;26.37;60.21;101009.50;5055356;28;45386;-77
2023/06/26 08:50:48;;;;;;;;;8.33;6.33;;;;;26.22;61.21;101008.13;5055088;28;46073;-79
2023/06/26 08:53:35;;;;;;;;;6.67;5.33;;;;;26.20;61.24;101001.94;5052381;28;45410;-77
2023/06/26 08:56:02;;;;;;;;;6.00;6.00;;;;;26.16;60.95;100986.88;5053339;28;45541;-81
2023/06/26 08:58:27;;;;;;;;;6.67;5.00;;;;;26.16;61.74;100995.81;5056298;28;45301;-77
2023/06/26 09:00:55;;;;;;;;;6.33;6.00;;;;;26.10;62.01;100984.38;5047554;28;46146;-82
2023/06/26 09:03:21;;;;;;;;;7.00;6.33;;;;;26.15;62.06;100998.53;5056405;28;45297;-77
2023/06/26 09:05:47;;;;;;;;;7.67;7.00;;;;;26.13;62.39;100993.19;5058576;28;45726;-82
2023/06/26 09:08:13;;;;;;;;;8.00;8.00;;;;;26.03;62.27;100985.47;5041601;28;45571;-86
2023/06/26 09:10:39;;;;;;;;;9.00;8.00;;;;;26.12;62.44;101004.84;5040803;28;45865;-79
2023/06/26 09:13:06;;;;;;;;;7.00;6.00;;;;;26.02;62.26;100983.69;5059094;28;45722;-79
2023/06/26 09:15:41;;;;;;;;;8.00;7.33;;;;;26.06;62.66;100991.59;5059363;28;45569;-84
2023/06/26 09:18:07;;;;;;;;;7.33;7.00;;;;;25.92;62.40;100958.97;5058988;28;45895;-87
2023/06/26 09:20:33;;;;;;;;;9.00;8.33;;;;;26.15;62.17;100993.16;5040540;28;48228;-82
2023/06/26 09:22:59;;;;;;;;;13.00;11.33;;;;;26.17;62.10;100991.31;5058729;28;45582;-80
2023/06/26 09:25:26;;;;;;;;;10.67;9.67;;;;;26.18;62.39;100990.38;5058678;28;45294;-86
2023/06/26 09:27:53;;;;;;;;;8.67;7.00;;;;;25.92;62.23;100946.47;5040612;28;45404;-84
2023/06/26 09:30:19;;;;;;;;;7.67;7.33;;;;;26.15;62.89;100993.16;5040547;28;48069;-83
2023/06/26 09:32:45;;;;;;;;;9.00;8.00;;;;;26.12;62.97;100982.53;5058313;28;45406;-83
2023/06/26 09:35:11;;;;;;;;;11.67;10.67;;;;;25.98;62.72;100981.13;5058806;28;45452;-86
2023/06/26 09:37:37;;;;;;;;;6.00;5.33;;;;;25.76;62.86;100943.28;5040500;28;45393;-86
2023/06/26 09:40:08;;;;;;;;;8.33;8.33;;;;;25.77;62.30;100944.19;5059625;28;45501;-78
2023/06/26 09:42:33;;;;;;;;;8.00;7.33;;;;;25.77;62.78;100965.59;5055940;28;45364;-82
2023/06/26 09:44:59;;;;;;;;;6.67;6.67;;;;;25.80;62.95;100994.94;5058851;28;45742;-81
2023/06/26 09:47:25;;;;;;;;;12.00;10.00;;;;;25.72;63.62;101000.50;5058765;28;45612;-80
2023/06/26 09:49:52;;;;;;;;;7.33;6.33;;;;;25.74;62.90;100998.66;5058042;28;45458;-80
2023/06/26 09:52:19;;;;;;;;;6.67;6.67;;;;;25.71;63.14;100998.75;5058090;28;45418;-81
2023/06/26 09:54:45;;;;;;;;;10.00;9.00;;;;;25.62;62.69;100974.03;5057759;28;45217;-84
2023/06/26 09:57:13;;;;;;;;;9.00;8.67;;;;;25.54;63.13;100959.03;5057801;28;45346;-83
2023/06/26 09:59:40;;;;;;;;;8.00;7.33;;;;;25.83;63.67;100996.69;5057879;28;46098;-81
2023/06/26 10:02:05;;;;;;;;;10.00;9.33;;;;;25.88;63.66;101000.09;5057831;28;45454;-85
2023/06/26 10:04:31;;;;;;;;;10.67;9.67;;;;;25.93;63.37;101001.78;5057893;28;45459;-80
2023/06/26 10:07:00;;;;;;;;;9.67;7.33;;;;;26.08;62.46;100997.78;5039733;28;45435;-83
2023/06/26 10:09:27;;;;;;;;;8.33;7.00;;;;;26.05;62.65;100970.25;5057544;28;45406;-80
2023/06/26 10:11:59;;;;;;;;;8.67;8.00;;;;;26.29;62.27;100993.66;5056464;28;45558;-83
2023/06/26 10:14:31;;;;;;;;;9.67;9.00;;;;;26.19;61.90;100978.78;5057842;28;45366;-80
2023/06/26 10:16:59;;;;;;;;;12.00;11.00;;;;;26.23;62.25;100959.00;5040149;28;45581;-82
2023/06/26 10:19:28;;;;;;;;;9.00;9.00;;;;;26.71;60.95;100993.34;5057114;28;46167;-82
2023/06/26 10:21:54;;;;;;;;;14.33;12.33;;;;;26.85;60.51;100962.59;5047755;28;45869;-80
2023/06/26 10:24:22;;;;;;;;;9.67;9.00;;;;;27.01;60.36;100960.31;5057564;28;45525;-83
2023/06/26 10:26:51;;;;;;;;;9.67;9.00;;;;;26.94;60.02;100922.09;5039813;28;45503;-77
2023/06/26 10:29:20;;;;;;;;;10.00;9.00;;;;;27.42;59.52;100972.41;5056976;28;46622;-80
2023/06/26 10:31:52;;;;;;;;;10.00;9.00;;;;;27.54;59.85;100988.09;5057020;28;45374;-80
2023/06/26 10:34:18;;;;;;;;;7.67;7.00;;;;;27.55;59.53;100981.75;5058468;28;45470;-91
2023/06/26 10:36:44;;;;;;;;;11.00;10.00;;;;;27.51;59.02;100972.06;5059346;28;45469;-84
2023/06/26 10:39:09;;;;;;;;;9.67;8.33;;;;;27.73;59.23;100987.44;5039355;28;45536;-85
2023/06/26 10:41:42;;;;;;;;;9.00;8.00;;;;;27.71;59.37;100973.19;5061179;28;45505;-86
2023/06/26 10:44:16;;;;;;;;;9.33;9.00;;;;;27.92;58.89;100977.00;5058742;28;45495;-79
2023/06/26 10:46:55;;;;;;;;;9.33;9.33;;;;;28.09;58.48;100977.28;5041033;28;45270;-78
2023/06/26 10:49:25;;;;;;;;;10.00;9.67;;;;;28.30;57.74;100986.34;5039901;28;45598;-78
2023/06/26 10:51:53;;;;;;;;;9.33;8.00;;;;;28.27;56.74;100974.81;5038967;28;45265;-85
2023/06/26 10:54:19;;;;;;;;;9.00;8.00;;;;;28.47;57.02;100984.81;5058010;28;45523;-81
2023/06/26 10:56:50;;;;;;;;;12.33;10.33;;;;;28.61;56.69;100985.22;5057492;28;45534;-80
2023/06/26 10:59:21;;;;;;;;;10.33;9.67;;;;;28.67;56.61;100976.94;5057854;28;45240;-78
2023/06/26 11:01:58;;;;;;;;;8.33;8.33;;;;;28.74;56.04;100986.50;5057458;28;45584;-82
2023/06/26 11:04:46;;;;;;;;;9.67;8.33;;;;;28.72;55.68;100980.31;5055239;28;45457;-77
2023/06/26 11:07:25;;;;;;;;;8.00;7.00;;;;;28.67;55.33;100982.31;5055806;28;45246;-79
2023/06/26 11:10:01;;;;;;;;;10.00;9.33;;;;;28.74;55.66;100994.56;5055111;28;45492;-79
2023/06/26 11:12:44;;;;;;;;;11.00;9.67;;;;;28.71;54.87;100967.81;5054713;28;45828;-74
2023/06/26 11:15:14;;;;;;;;;8.00;8.00;;;;;28.68;54.80;100946.41;5051707;28;45956;-84
2023/06/26 11:17:43;;;;;;;;;8.33;8.33;;;;;28.90;54.34;100983.22;5057176;28;45374;-81
2023/06/26 11:20:14;;;;;;;;;9.00;9.00;;;;;28.79;53.79;100972.91;5057188;28;45434;-83
2023/06/26 11:22:42;;;;;;;;;9.33;7.67;;;;;28.78;54.75;100989.94;5039529;28;45419;-82